sensor_id;sensor_type;location;lat;lon;timestamp;P1;durP1;ratioP1;P2;durP2;ratioP2
42200;SDS011;27869;51.442;7.540;2023-08-01T00:00:52;0.95;;;0.32;;
42200;SDS011;27869;51.442;7.540;2023-08-01T00:03:19;0.20;;;0.20;;
42200;SDS011;27869;51.442;7.540;2023-08-01T00:05:46;1.05;;;0.20;;
42200;SDS011;27869;51.442;7.540;2023-08-01T00:08:14;1.42;;;0.32;;
42200;SDS011;27869;51.442;7.540;2023-08-01T00:10:41;0.60;;;0.30;;
42200;SDS011;27869;51.442;7.540;2023-08-01T00:13:08;2.17;;;0.20;;
42200;SDS011;27869;51.442;7.540;2023-08-01T00:15:36;1.30;;;0.40;;
42200;SDS011;27869;51.442;7.540;2023-08-01T00:18:03;0.52;;;0.20;;
42200;SDS011;27869;51.442;7.540;2023-08-01T00:20:29;0.95;;;0.30;;
42200;SDS011;27869;51.442;7.540;2023-08-01T00:22:56;0.77;;;0.20;;
42200;SDS011;27869;51.442;7.540;2023-08-01T00:25:25;1.88;;;0.40;;
42200;SDS011;27869;51.442;7.540;2023-08-01T00:27:51;0.65;;;0.32;;
42200;SDS011;27869;51.442;7.540;2023-08-01T00:30:18;6.22;;;0.40;;
42200;SDS011;27869;51.442;7.540;2023-08-01T00:32:45;2.90;;;0.50;;
42200;SDS011;27869;51.442;7.540;2023-08-01T00:35:12;2.70;;;0.30;;
42200;SDS011;27869;51.442;7.540;2023-08-01T00:37:39;2.40;;;0.68;;
42200;SDS011;27869;51.442;7.540;2023-08-01T00:40:06;0.40;;;0.20;;
42200;SDS011;27869;51.442;7.540;2023-08-01T00:42:36;0.90;;;0.20;;
42200;SDS011;27869;51.442;7.540;2023-08-01T00:45:04;0.60;;;0.30;;
42200;SDS011;27869;51.442;7.540;2023-08-01T00:47:31;2.90;;;0.30;;
42200;SDS011;27869;51.442;7.540;2023-08-01T00:49:58;0.70;;;0.20;;
42200;SDS011;27869;51.442;7.540;2023-08-01T00:52:26;0.93;;;0.30;;
42200;SDS011;27869;51.442;7.540;2023-08-01T00:54:54;2.22;;;0.40;;
42200;SDS011;27869;51.442;7.540;2023-08-01T00:57:21;1.08;;;0.20;;
42200;SDS011;27869;51.442;7.540;2023-08-01T00:59:49;0.47;;;0.10;;
42200;SDS011;27869;51.442;7.540;2023-08-01T01:02:17;0.68;;;0.17;;
42200;SDS011;27869;51.442;7.540;2023-08-01T01:04:47;1.08;;;0.22;;
42200;SDS011;27869;51.442;7.540;2023-08-01T01:07:14;1.20;;;0.32;;
42200;SDS011;27869;51.442;7.540;2023-08-01T01:09:43;1.45;;;0.32;;
42200;SDS011;27869;51.442;7.540;2023-08-01T01:12:09;1.17;;;0.00;;
42200;SDS011;27869;51.442;7.540;2023-08-01T01:14:36;0.93;;;0.03;;
42200;SDS011;27869;51.442;7.540;2023-08-01T01:17:05;1.55;;;0.10;;
42200;SDS011;27869;51.442;7.540;2023-08-01T01:19:32;0.75;;;0.08;;
42200;SDS011;27869;51.442;7.540;2023-08-01T01:22:00;0.00;;;0.00;;
42200;SDS011;27869;51.442;7.540;2023-08-01T01:24:29;2.92;;;0.20;;
42200;SDS011;27869;51.442;7.540;2023-08-01T01:26:58;0.47;;;0.00;;
42200;SDS011;27869;51.442;7.540;2023-08-01T01:29:26;0.17;;;0.03;;
42200;SDS011;27869;51.442;7.540;2023-08-01T01:31:53;0.43;;;0.10;;
42200;SDS011;27869;51.442;7.540;2023-08-01T01:34:21;0.00;;;0.00;;
42200;SDS011;27869;51.442;7.540;2023-08-01T01:36:48;0.98;;;0.13;;
42200;SDS011;27869;51.442;7.540;2023-08-01T01:39:16;0.40;;;0.10;;
42200;SDS011;27869;51.442;7.540;2023-08-01T01:41:43;0.10;;;0.05;;
42200;SDS011;27869;51.442;7.540;2023-08-01T01:44:10;1.38;;;0.20;;
42200;SDS011;27869;51.442;7.540;2023-08-01T01:46:36;0.45;;;0.10;;
42200;SDS011;27869;51.442;7.540;2023-08-01T01:49:03;0.28;;;0.20;;
42200;SDS011;27869;51.442;7.540;2023-08-01T01:51:30;2.58;;;0.30;;
42200;SDS011;27869;51.442;7.540;2023-08-01T01:53:57;1.27;;;0.10;;
42200;SDS011;27869;51.442;7.540;2023-08-01T01:56:25;1.42;;;0.17;;
42200;SDS011;27869;51.442;7.540;2023-08-01T01:58:52;2.05;;;0.40;;
42200;SDS011;27869;51.442;7.540;2023-08-01T02:01:21;3.40;;;0.40;;
42200;SDS011;27869;51.442;7.540;2023-08-01T02:03:48;1.13;;;0.43;;
42200;SDS011;27869;51.442;7.540;2023-08-01T02:06:14;3.03;;;0.45;;
42200;SDS011;27869;51.442;7.540;2023-08-01T02:08:41;1.65;;;0.40;;
42200;SDS011;27869;51.442;7.540;2023-08-01T02:11:08;1.02;;;0.40;;
42200;SDS011;27869;51.442;7.540;2023-08-01T02:13:36;3.35;;;0.30;;
42200;SDS011;27869;51.442;7.540;2023-08-01T02:16:03;0.30;;;0.30;;
42200;SDS011;27869;51.442;7.540;2023-08-01T02:18:30;0.98;;;0.35;;
42200;SDS011;27869;51.442;7.540;2023-08-01T02:20:57;1.45;;;0.22;;
42200;SDS011;27869;51.442;7.540;2023-08-01T02:23:24;0.73;;;0.30;;
42200;SDS011;27869;51.442;7.540;2023-08-01T02:25:51;0.45;;;0.30;;
42200;SDS011;27869;51.442;7.540;2023-08-01T02:28:17;0.55;;;0.32;;
42200;SDS011;27869;51.442;7.540;2023-08-01T02:30:46;0.85;;;0.40;;
42200;SDS011;27869;51.442;7.540;2023-08-01T02:33:12;1.33;;;0.40;;
42200;SDS011;27869;51.442;7.540;2023-08-01T02:35:39;1.70;;;0.30;;
42200;SDS011;27869;51.442;7.540;2023-08-01T02:38:06;0.77;;;0.40;;
42200;SDS011;27869;51.442;7.540;2023-08-01T02:40:33;0.93;;;0.30;;
42200;SDS011;27869;51.442;7.540;2023-08-01T02:43:00;1.55;;;0.52;;
42200;SDS011;27869;51.442;7.540;2023-08-01T02:45:27;1.55;;;0.47;;
42200;SDS011;27869;51.442;7.540;2023-08-01T02:47:55;1.48;;;0.60;;
42200;SDS011;27869;51.442;7.540;2023-08-01T02:50:22;1.50;;;0.60;;
42200;SDS011;27869;51.442;7.540;2023-08-01T02:52:49;2.40;;;0.90;;
42200;SDS011;27869;51.442;7.540;2023-08-01T02:55:16;2.72;;;1.10;;
42200;SDS011;27869;51.442;7.540;2023-08-01T02:57:43;5.75;;;1.00;;
42200;SDS011;27869;51.442;7.540;2023-08-01T03:00:10;2.03;;;0.88;;
42200;SDS011;27869;51.442;7.540;2023-08-01T03:02:37;1.80;;;0.80;;
42200;SDS011;27869;51.442;7.540;2023-08-01T03:05:07;3.92;;;1.00;;
42200;SDS011;27869;51.442;7.540;2023-08-01T03:07:34;2.60;;;1.00;;
42200;SDS011;27869;51.442;7.540;2023-08-01T03:10:02;3.38;;;0.95;;
42200;SDS011;27869;51.442;7.540;2023-08-01T03:12:29;3.20;;;1.10;;
42200;SDS011;27869;51.442;7.540;2023-08-01T03:14:56;4.82;;;1.13;;
42200;SDS011;27869;51.442;7.540;2023-08-01T03:17:23;4.90;;;1.40;;
42200;SDS011;27869;51.442;7.540;2023-08-01T03:19:49;3.53;;;1.20;;
42200;SDS011;27869;51.442;7.540;2023-08-01T03:22:18;7.22;;;1.42;;
42200;SDS011;27869;51.442;7.540;2023-08-01T03:24:44;3.90;;;1.23;;
42200;SDS011;27869;51.442;7.540;2023-08-01T03:27:11;5.45;;;1.52;;
42200;SDS011;27869;51.442;7.540;2023-08-01T03:29:38;6.55;;;1.70;;
42200;SDS011;27869;51.442;7.540;2023-08-01T03:32:05;5.53;;;1.75;;
42200;SDS011;27869;51.442;7.540;2023-08-01T03:34:33;8.07;;;1.77;;
42200;SDS011;27869;51.442;7.540;2023-08-01T03:36:59;6.85;;;2.00;;
42200;SDS011;27869;51.442;7.540;2023-08-01T03:39:28;7.43;;;2.10;;
42200;SDS011;27869;51.442;7.540;2023-08-01T03:41:55;10.10;;;2.60;;
42200;SDS011;27869;51.442;7.540;2023-08-01T03:44:24;9.15;;;2.65;;
42200;SDS011;27869;51.442;7.540;2023-08-01T03:46:51;10.38;;;3.13;;
42200;SDS011;27869;51.442;7.540;2023-08-01T03:49:18;9.43;;;3.17;;
42200;SDS011;27869;51.442;7.540;2023-08-01T03:51:44;11.52;;;3.03;;
42200;SDS011;27869;51.442;7.540;2023-08-01T03:54:11;9.77;;;3.17;;
42200;SDS011;27869;51.442;7.540;2023-08-01T03:56:39;9.85;;;3.20;;
42200;SDS011;27869;51.442;7.540;2023-08-01T03:59:08;10.73;;;3.50;;
42200;SDS011;27869;51.442;7.540;2023-08-01T04:01:35;13.88;;;4.07;;
42200;SDS011;27869;51.442;7.540;2023-08-01T04:04:02;11.30;;;3.55;;
42200;SDS011;27869;51.442;7.540;2023-08-01T04:06:28;11.27;;;4.30;;
42200;SDS011;27869;51.442;7.540;2023-08-01T04:08:55;10.70;;;4.25;;
42200;SDS011;27869;51.442;7.540;2023-08-01T04:11:22;12.70;;;4.70;;
42200;SDS011;27869;51.442;7.540;2023-08-01T04:13:50;11.68;;;5.00;;
42200;SDS011;27869;51.442;7.540;2023-08-01T04:16:17;12.95;;;5.25;;
42200;SDS011;27869;51.442;7.540;2023-08-01T04:18:44;11.70;;;4.82;;
42200;SDS011;27869;51.442;7.540;2023-08-01T04:21:12;13.85;;;5.03;;
42200;SDS011;27869;51.442;7.540;2023-08-01T04:23:39;11.38;;;4.68;;
42200;SDS011;27869;51.442;7.540;2023-08-01T04:26:05;12.60;;;4.95;;
42200;SDS011;27869;51.442;7.540;2023-08-01T04:28:33;11.50;;;4.85;;
42200;SDS011;27869;51.442;7.540;2023-08-01T04:31:01;12.70;;;4.78;;
42200;SDS011;27869;51.442;7.540;2023-08-01T04:33:28;14.48;;;4.65;;
42200;SDS011;27869;51.442;7.540;2023-08-01T04:35:55;11.55;;;4.60;;
42200;SDS011;27869;51.442;7.540;2023-08-01T04:38:22;11.65;;;4.15;;
42200;SDS011;27869;51.442;7.540;2023-08-01T04:40:49;12.48;;;4.40;;
42200;SDS011;27869;51.442;7.540;2023-08-01T04:43:15;10.43;;;3.95;;
42200;SDS011;27869;51.442;7.540;2023-08-01T04:45:42;13.93;;;3.72;;
42200;SDS011;27869;51.442;7.540;2023-08-01T04:48:10;9.90;;;3.42;;
42200;SDS011;27869;51.442;7.540;2023-08-01T04:50:37;11.95;;;3.58;;
42200;SDS011;27869;51.442;7.540;2023-08-01T04:53:04;11.88;;;3.65;;
42200;SDS011;27869;51.442;7.540;2023-08-01T04:55:31;12.00;;;3.67;;
42200;SDS011;27869;51.442;7.540;2023-08-01T04:57:58;12.45;;;3.38;;
42200;SDS011;27869;51.442;7.540;2023-08-01T05:00:25;12.05;;;3.10;;
42200;SDS011;27869;51.442;7.540;2023-08-01T05:02:51;8.73;;;2.70;;
42200;SDS011;27869;51.442;7.540;2023-08-01T05:05:20;11.40;;;2.85;;
42200;SDS011;27869;51.442;7.540;2023-08-01T05:07:46;10.23;;;2.85;;
42200;SDS011;27869;51.442;7.540;2023-08-01T05:10:13;11.65;;;2.95;;
42200;SDS011;27869;51.442;7.540;2023-08-01T05:12:40;10.43;;;2.65;;
42200;SDS011;27869;51.442;7.540;2023-08-01T05:15:07;10.05;;;2.55;;
42200;SDS011;27869;51.442;7.540;2023-08-01T05:17:34;11.80;;;2.40;;
42200;SDS011;27869;51.442;7.540;2023-08-01T05:20:01;9.43;;;2.30;;
42200;SDS011;27869;51.442;7.540;2023-08-01T05:22:30;9.63;;;2.67;;
42200;SDS011;27869;51.442;7.540;2023-08-01T05:24:57;13.35;;;2.90;;
42200;SDS011;27869;51.442;7.540;2023-08-01T05:27:24;7.85;;;2.72;;
42200;SDS011;27869;51.442;7.540;2023-08-01T05:29:51;10.52;;;3.15;;
42200;SDS011;27869;51.442;7.540;2023-08-01T05:32:18;10.98;;;3.38;;
42200;SDS011;27869;51.442;7.540;2023-08-01T05:34:45;13.55;;;3.53;;
42200;SDS011;27869;51.442;7.540;2023-08-01T05:37:12;11.90;;;3.38;;
42200;SDS011;27869;51.442;7.540;2023-08-01T05:39:40;14.43;;;3.90;;
42200;SDS011;27869;51.442;7.540;2023-08-01T05:42:06;10.90;;;3.80;;
42200;SDS011;27869;51.442;7.540;2023-08-01T05:44:34;11.23;;;3.58;;
42200;SDS011;27869;51.442;7.540;2023-08-01T05:47:01;13.60;;;4.43;;
42200;SDS011;27869;51.442;7.540;2023-08-01T05:49:28;12.60;;;4.32;;
42200;SDS011;27869;51.442;7.540;2023-08-01T05:51:55;14.63;;;4.35;;
42200;SDS011;27869;51.442;7.540;2023-08-01T05:54:22;12.50;;;4.68;;
42200;SDS011;27869;51.442;7.540;2023-08-01T05:56:51;13.70;;;4.47;;
42200;SDS011;27869;51.442;7.540;2023-08-01T05:59:18;12.93;;;4.63;;
42200;SDS011;27869;51.442;7.540;2023-08-01T06:01:45;12.00;;;4.85;;
42200;SDS011;27869;51.442;7.540;2023-08-01T06:04:12;13.98;;;5.18;;
42200;SDS011;27869;51.442;7.540;2023-08-01T06:06:39;13.88;;;5.32;;
42200;SDS011;27869;51.442;7.540;2023-08-01T06:09:05;11.63;;;4.43;;
42200;SDS011;27869;51.442;7.540;2023-08-01T06:11:32;12.13;;;5.00;;
42200;SDS011;27869;51.442;7.540;2023-08-01T06:14:01;11.43;;;4.40;;
42200;SDS011;27869;51.442;7.540;2023-08-01T06:16:28;12.38;;;4.40;;
42200;SDS011;27869;51.442;7.540;2023-08-01T06:18:55;12.55;;;4.45;;
42200;SDS011;27869;51.442;7.540;2023-08-01T06:21:22;12.70;;;4.57;;
42200;SDS011;27869;51.442;7.540;2023-08-01T06:23:49;12.07;;;4.57;;
42200;SDS011;27869;51.442;7.540;2023-08-01T06:26:16;13.85;;;4.78;;
42200;SDS011;27869;51.442;7.540;2023-08-01T06:28:42;14.93;;;5.18;;
42200;SDS011;27869;51.442;7.540;2023-08-01T06:31:11;12.52;;;4.97;;
42200;SDS011;27869;51.442;7.540;2023-08-01T06:33:38;14.02;;;5.88;;
42200;SDS011;27869;51.442;7.540;2023-08-01T06:36:04;14.77;;;5.82;;
42200;SDS011;27869;51.442;7.540;2023-08-01T06:38:31;14.45;;;5.68;;
42200;SDS011;27869;51.442;7.540;2023-08-01T06:40:58;14.48;;;5.43;;
42200;SDS011;27869;51.442;7.540;2023-08-01T06:43:25;13.20;;;5.68;;
42200;SDS011;27869;51.442;7.540;2023-08-01T06:45:52;13.95;;;5.50;;
42200;SDS011;27869;51.442;7.540;2023-08-01T06:48:20;16.05;;;5.95;;
42200;SDS011;27869;51.442;7.540;2023-08-01T06:50:47;18.60;;;5.90;;
42200;SDS011;27869;51.442;7.540;2023-08-01T06:53:14;15.02;;;5.78;;
42200;SDS011;27869;51.442;7.540;2023-08-01T06:55:40;14.52;;;5.22;;
42200;SDS011;27869;51.442;7.540;2023-08-01T06:58:07;13.32;;;4.70;;
42200;SDS011;27869;51.442;7.540;2023-08-01T07:00:34;13.27;;;4.53;;
42200;SDS011;27869;51.442;7.540;2023-08-01T07:03:01;12.60;;;4.32;;
42200;SDS011;27869;51.442;7.540;2023-08-01T07:05:30;12.68;;;4.25;;
42200;SDS011;27869;51.442;7.540;2023-08-01T07:07:56;12.70;;;4.25;;
42200;SDS011;27869;51.442;7.540;2023-08-01T07:10:23;14.88;;;4.30;;
42200;SDS011;27869;51.442;7.540;2023-08-01T07:12:50;13.52;;;4.38;;
42200;SDS011;27869;51.442;7.540;2023-08-01T07:15:17;13.70;;;3.95;;
42200;SDS011;27869;51.442;7.540;2023-08-01T07:17:44;13.65;;;4.00;;
42200;SDS011;27869;51.442;7.540;2023-08-01T07:20:11;12.13;;;3.72;;
42200;SDS011;27869;51.442;7.540;2023-08-01T07:22:39;13.75;;;3.88;;
42200;SDS011;27869;51.442;7.540;2023-08-01T07:25:07;12.57;;;3.88;;
42200;SDS011;27869;51.442;7.540;2023-08-01T07:27:34;12.98;;;4.10;;
42200;SDS011;27869;51.442;7.540;2023-08-01T07:30:02;14.30;;;3.67;;
42200;SDS011;27869;51.442;7.540;2023-08-01T07:32:30;10.93;;;3.47;;
42200;SDS011;27869;51.442;7.540;2023-08-01T07:34:57;10.95;;;3.70;;
42200;SDS011;27869;51.442;7.540;2023-08-01T07:37:23;13.38;;;3.85;;
42200;SDS011;27869;51.442;7.540;2023-08-01T07:39:54;12.32;;;3.95;;
42200;SDS011;27869;51.442;7.540;2023-08-01T07:42:21;11.85;;;3.67;;
42200;SDS011;27869;51.442;7.540;2023-08-01T07:44:48;11.13;;;3.55;;
42200;SDS011;27869;51.442;7.540;2023-08-01T07:47:15;12.50;;;4.03;;
42200;SDS011;27869;51.442;7.540;2023-08-01T07:49:42;15.38;;;4.22;;
42200;SDS011;27869;51.442;7.540;2023-08-01T07:52:09;12.65;;;4.03;;
42200;SDS011;27869;51.442;7.540;2023-08-01T07:54:36;16.10;;;4.00;;
42200;SDS011;27869;51.442;7.540;2023-08-01T07:57:04;12.73;;;3.83;;
42200;SDS011;27869;51.442;7.540;2023-08-01T07:59:32;11.43;;;3.63;;
42200;SDS011;27869;51.442;7.540;2023-08-01T08:01:58;10.63;;;3.50;;
42200;SDS011;27869;51.442;7.540;2023-08-01T08:04:26;12.02;;;3.72;;
42200;SDS011;27869;51.442;7.540;2023-08-01T08:06:52;11.50;;;3.97;;
42200;SDS011;27869;51.442;7.540;2023-08-01T08:09:20;12.82;;;3.83;;
42200;SDS011;27869;51.442;7.540;2023-08-01T08:11:47;13.18;;;3.83;;
42200;SDS011;27869;51.442;7.540;2023-08-01T08:14:16;11.93;;;3.45;;
42200;SDS011;27869;51.442;7.540;2023-08-01T08:16:45;13.48;;;3.63;;
42200;SDS011;27869;51.442;7.540;2023-08-01T08:19:12;10.50;;;3.22;;
42200;SDS011;27869;51.442;7.540;2023-08-01T08:21:39;10.50;;;3.35;;
42200;SDS011;27869;51.442;7.540;2023-08-01T08:24:06;12.52;;;3.35;;
42200;SDS011;27869;51.442;7.540;2023-08-01T08:26:33;10.93;;;3.20;;
42200;SDS011;27869;51.442;7.540;2023-08-01T08:29:02;11.60;;;3.20;;
42200;SDS011;27869;51.442;7.540;2023-08-01T08:31:31;11.80;;;3.13;;
42200;SDS011;27869;51.442;7.540;2023-08-01T08:33:58;11.82;;;2.97;;
42200;SDS011;27869;51.442;7.540;2023-08-01T08:36:25;11.18;;;2.80;;
42200;SDS011;27869;51.442;7.540;2023-08-01T08:38:51;10.90;;;2.88;;
42200;SDS011;27869;51.442;7.540;2023-08-01T08:41:20;10.00;;;2.63;;
42200;SDS011;27869;51.442;7.540;2023-08-01T08:43:48;11.73;;;2.63;;
42200;SDS011;27869;51.442;7.540;2023-08-01T08:46:16;10.75;;;2.92;;
42200;SDS011;27869;51.442;7.540;2023-08-01T08:48:44;9.27;;;2.55;;
42200;SDS011;27869;51.442;7.540;2023-08-01T08:53:39;10.88;;;2.70;;
42200;SDS011;27869;51.442;7.540;2023-08-01T08:56:07;8.25;;;2.28;;
42200;SDS011;27869;51.442;7.540;2023-08-01T08:58:35;9.07;;;2.50;;
42200;SDS011;27869;51.442;7.540;2023-08-01T09:01:04;10.20;;;2.85;;
42200;SDS011;27869;51.442;7.540;2023-08-01T09:03:33;10.25;;;3.00;;
42200;SDS011;27869;51.442;7.540;2023-08-01T09:06:02;7.35;;;2.45;;
42200;SDS011;27869;51.442;7.540;2023-08-01T09:08:35;10.48;;;2.47;;
42200;SDS011;27869;51.442;7.540;2023-08-01T09:11:03;10.27;;;2.58;;
42200;SDS011;27869;51.442;7.540;2023-08-01T09:13:30;11.10;;;2.60;;
42200;SDS011;27869;51.442;7.540;2023-08-01T09:16:01;10.38;;;2.53;;
42200;SDS011;27869;51.442;7.540;2023-08-01T09:18:28;9.13;;;2.72;;
42200;SDS011;27869;51.442;7.540;2023-08-01T09:20:55;10.90;;;2.90;;
42200;SDS011;27869;51.442;7.540;2023-08-01T09:23:28;9.95;;;2.40;;
42200;SDS011;27869;51.442;7.540;2023-08-01T09:25:56;11.23;;;2.35;;
42200;SDS011;27869;51.442;7.540;2023-08-01T09:28:23;11.25;;;2.40;;
42200;SDS011;27869;51.442;7.540;2023-08-01T09:33:19;7.65;;;2.00;;
42200;SDS011;27869;51.442;7.540;2023-08-01T09:35:46;9.43;;;2.45;;
42200;SDS011;27869;51.442;7.540;2023-08-01T09:38:15;9.10;;;2.40;;
42200;SDS011;27869;51.442;7.540;2023-08-01T09:40:44;8.82;;;2.25;;
42200;SDS011;27869;51.442;7.540;2023-08-01T09:43:11;12.48;;;2.45;;
42200;SDS011;27869;51.442;7.540;2023-08-01T09:45:49;8.70;;;2.17;;
42200;SDS011;27869;51.442;7.540;2023-08-01T09:48:23;10.90;;;2.15;;
42200;SDS011;27869;51.442;7.540;2023-08-01T09:50:51;9.50;;;2.15;;
42200;SDS011;27869;51.442;7.540;2023-08-01T09:53:19;8.40;;;2.10;;
42200;SDS011;27869;51.442;7.540;2023-08-01T09:55:47;8.35;;;2.00;;
42200;SDS011;27869;51.442;7.540;2023-08-01T09:58:17;9.13;;;2.20;;
42200;SDS011;27869;51.442;7.540;2023-08-01T10:00:47;11.13;;;2.17;;
42200;SDS011;27869;51.442;7.540;2023-08-01T10:03:16;8.10;;;2.10;;
42200;SDS011;27869;51.442;7.540;2023-08-01T10:05:43;7.07;;;1.92;;
42200;SDS011;27869;51.442;7.540;2023-08-01T10:08:11;8.35;;;1.90;;
42200;SDS011;27869;51.442;7.540;2023-08-01T10:10:39;8.20;;;2.03;;
42200;SDS011;27869;51.442;7.540;2023-08-01T10:13:08;7.53;;;2.03;;
42200;SDS011;27869;51.442;7.540;2023-08-01T10:15:38;7.75;;;1.80;;
42200;SDS011;27869;51.442;7.540;2023-08-01T10:18:06;9.30;;;1.98;;
42200;SDS011;27869;51.442;7.540;2023-08-01T10:20:34;7.45;;;2.00;;
42200;SDS011;27869;51.442;7.540;2023-08-01T10:23:03;7.80;;;2.00;;
42200;SDS011;27869;51.442;7.540;2023-08-01T10:25:31;7.22;;;1.83;;
42200;SDS011;27869;51.442;7.540;2023-08-01T10:27:59;6.40;;;1.70;;
42200;SDS011;27869;51.442;7.540;2023-08-01T10:30:28;7.25;;;2.13;;
42200;SDS011;27869;51.442;7.540;2023-08-01T10:35:35;8.32;;;1.80;;
42200;SDS011;27869;51.442;7.540;2023-08-01T10:38:03;7.28;;;1.73;;
42200;SDS011;27869;51.442;7.540;2023-08-01T10:40:37;7.60;;;1.77;;
42200;SDS011;27869;51.442;7.540;2023-08-01T10:43:05;5.57;;;1.38;;
42200;SDS011;27869;51.442;7.540;2023-08-01T10:45:33;9.70;;;1.65;;
42200;SDS011;27869;51.442;7.540;2023-08-01T10:48:07;7.15;;;1.90;;
42200;SDS011;27869;51.442;7.540;2023-08-01T10:50:34;11.10;;;2.53;;
42200;SDS011;27869;51.442;7.540;2023-08-01T10:53:02;5.55;;;1.42;;
42200;SDS011;27869;51.442;7.540;2023-08-01T10:55:37;5.97;;;1.52;;
42200;SDS011;27869;51.442;7.540;2023-08-01T10:58:06;6.57;;;1.70;;
42200;SDS011;27869;51.442;7.540;2023-08-01T11:00:34;8.40;;;2.17;;
42200;SDS011;27869;51.442;7.540;2023-08-01T11:03:01;7.28;;;1.90;;
42200;SDS011;27869;51.442;7.540;2023-08-01T11:05:28;8.90;;;2.25;;
42200;SDS011;27869;51.442;7.540;2023-08-01T11:07:55;9.20;;;2.17;;
42200;SDS011;27869;51.442;7.540;2023-08-01T11:10:24;9.20;;;2.00;;
42200;SDS011;27869;51.442;7.540;2023-08-01T11:15:18;10.48;;;2.00;;
42200;SDS011;27869;51.442;7.540;2023-08-01T11:17:47;9.23;;;2.28;;
42200;SDS011;27869;51.442;7.540;2023-08-01T11:20:16;9.30;;;2.22;;
42200;SDS011;27869;51.442;7.540;2023-08-01T11:22:50;8.20;;;1.90;;
42200;SDS011;27869;51.442;7.540;2023-08-01T11:25:19;7.78;;;1.98;;
42200;SDS011;27869;51.442;7.540;2023-08-01T11:27:56;10.18;;;2.10;;
42200;SDS011;27869;51.442;7.540;2023-08-01T11:30:29;12.15;;;2.55;;
42200;SDS011;27869;51.442;7.540;2023-08-01T11:32:58;7.82;;;1.95;;
42200;SDS011;27869;51.442;7.540;2023-08-01T11:35:27;8.40;;;2.03;;
42200;SDS011;27869;51.442;7.540;2023-08-01T11:37:53;8.60;;;1.92;;
42200;SDS011;27869;51.442;7.540;2023-08-01T11:40:21;7.03;;;1.90;;
42200;SDS011;27869;51.442;7.540;2023-08-01T11:42:48;9.13;;;2.05;;
42200;SDS011;27869;51.442;7.540;2023-08-01T11:45:17;6.90;;;2.00;;
42200;SDS011;27869;51.442;7.540;2023-08-01T11:47:44;7.05;;;1.98;;
42200;SDS011;27869;51.442;7.540;2023-08-01T11:50:13;8.63;;;1.98;;
42200;SDS011;27869;51.442;7.540;2023-08-01T11:52:46;5.97;;;1.83;;
42200;SDS011;27869;51.442;7.540;2023-08-01T11:55:18;9.82;;;2.20;;
42200;SDS011;27869;51.442;7.540;2023-08-01T11:57:51;8.80;;;2.03;;
42200;SDS011;27869;51.442;7.540;2023-08-01T12:00:20;8.55;;;2.10;;
42200;SDS011;27869;51.442;7.540;2023-08-01T12:02:48;9.10;;;1.88;;
42200;SDS011;27869;51.442;7.540;2023-08-01T12:05:22;9.52;;;1.92;;
42200;SDS011;27869;51.442;7.540;2023-08-01T12:07:49;8.15;;;1.80;;
42200;SDS011;27869;51.442;7.540;2023-08-01T12:10:16;8.10;;;1.77;;
42200;SDS011;27869;51.442;7.540;2023-08-01T12:12:43;9.55;;;1.90;;
42200;SDS011;27869;51.442;7.540;2023-08-01T12:15:12;5.03;;;1.42;;
42200;SDS011;27869;51.442;7.540;2023-08-01T12:17:39;5.57;;;1.40;;
42200;SDS011;27869;51.442;7.540;2023-08-01T12:20:06;6.40;;;1.33;;
42200;SDS011;27869;51.442;7.540;2023-08-01T12:22:35;8.18;;;1.70;;
42200;SDS011;27869;51.442;7.540;2023-08-01T12:25:02;7.90;;;1.70;;
42200;SDS011;27869;51.442;7.540;2023-08-01T12:27:29;6.35;;;1.60;;
42200;SDS011;27869;51.442;7.540;2023-08-01T12:29:56;8.27;;;1.63;;
42200;SDS011;27869;51.442;7.540;2023-08-01T12:32:23;8.63;;;1.90;;
42200;SDS011;27869;51.442;7.540;2023-08-01T12:34:50;6.80;;;1.70;;
42200;SDS011;27869;51.442;7.540;2023-08-01T12:37:17;7.97;;;1.77;;
42200;SDS011;27869;51.442;7.540;2023-08-01T12:39:46;8.65;;;2.00;;
42200;SDS011;27869;51.442;7.540;2023-08-01T12:42:13;11.27;;;2.38;;
42200;SDS011;27869;51.442;7.540;2023-08-01T12:44:40;7.90;;;1.85;;
42200;SDS011;27869;51.442;7.540;2023-08-01T12:47:06;9.05;;;2.10;;
42200;SDS011;27869;51.442;7.540;2023-08-01T12:49:36;10.55;;;2.35;;
42200;SDS011;27869;51.442;7.540;2023-08-01T12:52:03;7.70;;;1.63;;
42200;SDS011;27869;51.442;7.540;2023-08-01T12:54:30;8.68;;;2.05;;
42200;SDS011;27869;51.442;7.540;2023-08-01T12:56:58;9.35;;;1.90;;
42200;SDS011;27869;51.442;7.540;2023-08-01T12:59:25;8.52;;;1.92;;
42200;SDS011;27869;51.442;7.540;2023-08-01T13:01:52;7.22;;;1.55;;
42200;SDS011;27869;51.442;7.540;2023-08-01T13:04:19;8.50;;;2.03;;
42200;SDS011;27869;51.442;7.540;2023-08-01T13:06:46;9.88;;;2.17;;
42200;SDS011;27869;51.442;7.540;2023-08-01T13:09:13;8.00;;;1.90;;
42200;SDS011;27869;51.442;7.540;2023-08-01T13:11:39;9.48;;;1.90;;
42200;SDS011;27869;51.442;7.540;2023-08-01T13:14:09;8.82;;;1.90;;
42200;SDS011;27869;51.442;7.540;2023-08-01T13:16:36;6.93;;;2.00;;
42200;SDS011;27869;51.442;7.540;2023-08-01T13:19:03;6.97;;;1.92;;
42200;SDS011;27869;51.442;7.540;2023-08-01T13:21:31;9.45;;;2.10;;
42200;SDS011;27869;51.442;7.540;2023-08-01T13:23:59;8.30;;;2.10;;
42200;SDS011;27869;51.442;7.540;2023-08-01T13:26:29;7.93;;;2.00;;
42200;SDS011;27869;51.442;7.540;2023-08-01T13:28:56;10.18;;;2.10;;
42200;SDS011;27869;51.442;7.540;2023-08-01T13:31:25;10.40;;;1.70;;
42200;SDS011;27869;51.442;7.540;2023-08-01T13:33:53;7.03;;;1.70;;
42200;SDS011;27869;51.442;7.540;2023-08-01T13:36:19;10.75;;;1.90;;
42200;SDS011;27869;51.442;7.540;2023-08-01T13:38:46;8.27;;;1.70;;
42200;SDS011;27869;51.442;7.540;2023-08-01T13:41:13;7.43;;;1.98;;
42200;SDS011;27869;51.442;7.540;2023-08-01T13:43:40;6.88;;;1.75;;
42200;SDS011;27869;51.442;7.540;2023-08-01T13:46:11;9.00;;;1.70;;
42200;SDS011;27869;51.442;7.540;2023-08-01T13:48:41;8.73;;;1.80;;
42200;SDS011;27869;51.442;7.540;2023-08-01T13:51:08;7.28;;;1.40;;
42200;SDS011;27869;51.442;7.540;2023-08-01T13:53:35;8.45;;;1.40;;
42200;SDS011;27869;51.442;7.540;2023-08-01T13:56:05;7.53;;;1.67;;
42200;SDS011;27869;51.442;7.540;2023-08-01T13:58:32;7.03;;;1.52;;
42200;SDS011;27869;51.442;7.540;2023-08-01T14:01:01;7.00;;;1.33;;
42200;SDS011;27869;51.442;7.540;2023-08-01T14:03:29;5.63;;;1.38;;
42200;SDS011;27869;51.442;7.540;2023-08-01T14:06:02;7.22;;;1.73;;
42200;SDS011;27869;51.442;7.540;2023-08-01T14:08:30;8.95;;;1.70;;
42200;SDS011;27869;51.442;7.540;2023-08-01T14:10:56;9.00;;;2.00;;
42200;SDS011;27869;51.442;7.540;2023-08-01T14:13:23;9.25;;;1.65;;
42200;SDS011;27869;51.442;7.540;2023-08-01T14:15:50;6.43;;;1.30;;
42200;SDS011;27869;51.442;7.540;2023-08-01T14:18:17;8.05;;;1.75;;
42200;SDS011;27869;51.442;7.540;2023-08-01T14:20:44;8.48;;;1.70;;
42200;SDS011;27869;51.442;7.540;2023-08-01T14:23:12;7.75;;;1.48;;
42200;SDS011;27869;51.442;7.540;2023-08-01T14:25:39;5.40;;;1.30;;
42200;SDS011;27869;51.442;7.540;2023-08-01T14:28:06;9.07;;;1.52;;
42200;SDS011;27869;51.442;7.540;2023-08-01T14:30:33;6.95;;;1.52;;
42200;SDS011;27869;51.442;7.540;2023-08-01T14:33:00;6.20;;;1.42;;
42200;SDS011;27869;51.442;7.540;2023-08-01T14:35:27;10.15;;;1.77;;
42200;SDS011;27869;51.442;7.540;2023-08-01T14:37:54;7.20;;;1.40;;
42200;SDS011;27869;51.442;7.540;2023-08-01T14:40:23;6.47;;;1.55;;
42200;SDS011;27869;51.442;7.540;2023-08-01T14:42:50;8.10;;;1.42;;
42200;SDS011;27869;51.442;7.540;2023-08-01T14:45:17;9.52;;;1.50;;
42200;SDS011;27869;51.442;7.540;2023-08-01T14:47:44;7.88;;;1.60;;
42200;SDS011;27869;51.442;7.540;2023-08-01T14:50:12;7.55;;;1.30;;
42200;SDS011;27869;51.442;7.540;2023-08-01T14:52:40;6.18;;;1.40;;
42200;SDS011;27869;51.442;7.540;2023-08-01T14:55:08;9.18;;;1.75;;